sensor_id;sensor_type;location;lat;lon;timestamp;P1;durP1;ratioP1;P2;durP2;ratioP2
16189;SDS011;41754;51.498;7.540;2023-10-13T00:00:28;13.15;;;8.52;;
16189;SDS011;41754;51.498;7.540;2023-10-13T00:03:01;11.57;;;8.98;;
16189;SDS011;41754;51.498;7.540;2023-10-13T00:05:29;11.07;;;9.20;;
16189;SDS011;41754;51.498;7.540;2023-10-13T00:07:59;13.80;;;10.18;;
16189;SDS011;41754;51.498;7.540;2023-10-13T00:10:29;9.77;;;8.77;;
16189;SDS011;41754;51.498;7.540;2023-10-13T00:12:57;11.38;;;9.75;;
16189;SDS011;41754;51.498;7.540;2023-10-13T00:15:39;12.55;;;9.80;;
16189;SDS011;41754;51.498;7.540;2023-10-13T00:18:12;10.18;;;9.10;;
16189;SDS011;41754;51.498;7.540;2023-10-13T00:20:40;12.07;;;10.15;;
16189;SDS011;41754;51.498;7.540;2023-10-13T00:23:16;11.85;;;9.35;;
16189;SDS011;41754;51.498;7.540;2023-10-13T00:25:48;12.75;;;10.52;;
16189;SDS011;41754;51.498;7.540;2023-10-13T00:28:25;13.95;;;10.68;;
16189;SDS011;41754;51.498;7.540;2023-10-13T00:31:02;12.57;;;10.30;;
16189;SDS011;41754;51.498;7.540;2023-10-13T00:33:37;13.65;;;10.75;;
16189;SDS011;41754;51.498;7.540;2023-10-13T00:36:07;11.57;;;9.90;;
16189;SDS011;41754;51.498;7.540;2023-10-13T00:38:44;15.25;;;9.55;;
16189;SDS011;41754;51.498;7.540;2023-10-13T00:41:15;13.10;;;9.27;;
16189;SDS011;41754;51.498;7.540;2023-10-13T00:43:44;11.52;;;9.38;;
16189;SDS011;41754;51.498;7.540;2023-10-13T00:46:31;9.98;;;8.90;;
16189;SDS011;41754;51.498;7.540;2023-10-13T00:49:01;11.95;;;9.77;;
16189;SDS011;41754;51.498;7.540;2023-10-13T00:51:30;9.88;;;8.70;;
16189;SDS011;41754;51.498;7.540;2023-10-13T00:54:04;9.82;;;8.07;;
16189;SDS011;41754;51.498;7.540;2023-10-13T00:56:37;9.40;;;7.88;;
16189;SDS011;41754;51.498;7.540;2023-10-13T00:59:13;10.60;;;8.27;;
16189;SDS011;41754;51.498;7.540;2023-10-13T01:01:40;9.73;;;7.50;;
16189;SDS011;41754;51.498;7.540;2023-10-13T01:04:10;10.02;;;8.00;;
16189;SDS011;41754;51.498;7.540;2023-10-13T01:06:39;9.75;;;8.55;;
16189;SDS011;41754;51.498;7.540;2023-10-13T01:09:09;8.55;;;7.22;;
16189;SDS011;41754;51.498;7.540;2023-10-13T01:11:40;8.57;;;7.47;;
16189;SDS011;41754;51.498;7.540;2023-10-13T01:14:11;14.27;;;8.07;;
16189;SDS011;41754;51.498;7.540;2023-10-13T01:16:38;8.18;;;6.88;;
16189;SDS011;41754;51.498;7.540;2023-10-13T01:19:10;9.63;;;7.18;;
16189;SDS011;41754;51.498;7.540;2023-10-13T01:21:38;8.35;;;7.55;;
16189;SDS011;41754;51.498;7.540;2023-10-13T01:24:09;9.52;;;8.13;;
16189;SDS011;41754;51.498;7.540;2023-10-13T01:26:37;9.85;;;7.80;;
16189;SDS011;41754;51.498;7.540;2023-10-13T01:29:06;11.48;;;8.05;;
16189;SDS011;41754;51.498;7.540;2023-10-13T01:31:41;11.23;;;8.05;;
16189;SDS011;41754;51.498;7.540;2023-10-13T01:34:13;8.52;;;7.32;;
16189;SDS011;41754;51.498;7.540;2023-10-13T01:36:46;10.43;;;7.32;;
16189;SDS011;41754;51.498;7.540;2023-10-13T01:39:18;10.18;;;7.80;;
16189;SDS011;41754;51.498;7.540;2023-10-13T01:41:48;8.93;;;7.10;;
16189;SDS011;41754;51.498;7.540;2023-10-13T01:44:22;11.13;;;7.90;;
16189;SDS011;41754;51.498;7.540;2023-10-13T01:46:49;9.18;;;7.78;;
16189;SDS011;41754;51.498;7.540;2023-10-13T01:49:17;13.15;;;7.45;;
16189;SDS011;41754;51.498;7.540;2023-10-13T01:51:48;9.85;;;7.68;;
16189;SDS011;41754;51.498;7.540;2023-10-13T01:54:15;9.00;;;7.22;;
16189;SDS011;41754;51.498;7.540;2023-10-13T01:56:45;8.70;;;6.85;;
16189;SDS011;41754;51.498;7.540;2023-10-13T01:59:13;9.10;;;7.35;;
16189;SDS011;41754;51.498;7.540;2023-10-13T02:01:41;9.95;;;7.93;;
16189;SDS011;41754;51.498;7.540;2023-10-13T02:04:09;10.90;;;7.47;;
16189;SDS011;41754;51.498;7.540;2023-10-13T02:06:38;9.57;;;7.30;;
16189;SDS011;41754;51.498;7.540;2023-10-13T02:09:05;10.98;;;8.05;;
16189;SDS011;41754;51.498;7.540;2023-10-13T02:11:40;12.25;;;7.93;;
16189;SDS011;41754;51.498;7.540;2023-10-13T02:14:09;7.93;;;7.13;;
16189;SDS011;41754;51.498;7.540;2023-10-13T02:16:38;8.40;;;7.57;;
16189;SDS011;41754;51.498;7.540;2023-10-13T02:19:06;8.18;;;7.25;;
16189;SDS011;41754;51.498;7.540;2023-10-13T02:21:35;10.65;;;7.38;;
16189;SDS011;41754;51.498;7.540;2023-10-13T02:24:06;8.75;;;7.80;;
16189;SDS011;41754;51.498;7.540;2023-10-13T02:26:40;8.88;;;7.50;;
16189;SDS011;41754;51.498;7.540;2023-10-13T02:29:09;9.35;;;7.47;;
16189;SDS011;41754;51.498;7.540;2023-10-13T02:31:40;9.68;;;7.88;;
16189;SDS011;41754;51.498;7.540;2023-10-13T02:34:08;8.73;;;7.80;;
16189;SDS011;41754;51.498;7.540;2023-10-13T02:36:40;9.93;;;7.10;;
16189;SDS011;41754;51.498;7.540;2023-10-13T02:39:13;9.63;;;7.32;;
16189;SDS011;41754;51.498;7.540;2023-10-13T02:41:43;8.65;;;6.57;;
16189;SDS011;41754;51.498;7.540;2023-10-13T02:44:15;13.80;;;7.35;;
16189;SDS011;41754;51.498;7.540;2023-10-13T02:46:53;9.35;;;7.15;;
16189;SDS011;41754;51.498;7.540;2023-10-13T02:49:22;10.55;;;6.95;;
16189;SDS011;41754;51.498;7.540;2023-10-13T02:51:53;9.43;;;7.15;;
16189;SDS011;41754;51.498;7.540;2023-10-13T02:54:22;9.75;;;7.25;;
16189;SDS011;41754;51.498;7.540;2023-10-13T02:56:56;10.93;;;6.65;;
16189;SDS011;41754;51.498;7.540;2023-10-13T02:59:25;9.43;;;7.05;;
16189;SDS011;41754;51.498;7.540;2023-10-13T03:02:05;8.35;;;6.85;;
16189;SDS011;41754;51.498;7.540;2023-10-13T03:04:44;9.30;;;7.25;;
16189;SDS011;41754;51.498;7.540;2023-10-13T03:07:12;11.05;;;7.43;;
16189;SDS011;41754;51.498;7.540;2023-10-13T03:09:42;8.13;;;6.95;;
16189;SDS011;41754;51.498;7.540;2023-10-13T03:12:17;8.18;;;6.57;;
16189;SDS011;41754;51.498;7.540;2023-10-13T03:14:45;9.95;;;6.72;;
16189;SDS011;41754;51.498;7.540;2023-10-13T03:17:14;9.20;;;7.50;;
16189;SDS011;41754;51.498;7.540;2023-10-13T03:19:45;10.55;;;7.15;;
16189;SDS011;41754;51.498;7.540;2023-10-13T03:22:17;8.00;;;6.85;;
16189;SDS011;41754;51.498;7.540;2023-10-13T03:24:45;7.40;;;6.40;;
16189;SDS011;41754;51.498;7.540;2023-10-13T03:27:14;7.35;;;6.47;;
16189;SDS011;41754;51.498;7.540;2023-10-13T03:29:43;7.35;;;6.50;;
16189;SDS011;41754;51.498;7.540;2023-10-13T03:32:16;7.82;;;6.85;;
16189;SDS011;41754;51.498;7.540;2023-10-13T03:34:45;9.68;;;7.00;;
16189;SDS011;41754;51.498;7.540;2023-10-13T03:37:21;9.15;;;7.40;;
16189;SDS011;41754;51.498;7.540;2023-10-13T03:40:05;9.80;;;7.47;;
16189;SDS011;41754;51.498;7.540;2023-10-13T03:42:43;12.63;;;8.00;;
16189;SDS011;41754;51.498;7.540;2023-10-13T03:45:24;12.13;;;8.43;;
16189;SDS011;41754;51.498;7.540;2023-10-13T03:47:53;9.85;;;8.18;;
16189;SDS011;41754;51.498;7.540;2023-10-13T03:50:21;10.70;;;8.73;;
16189;SDS011;41754;51.498;7.540;2023-10-13T03:52:56;11.95;;;8.57;;
16189;SDS011;41754;51.498;7.540;2023-10-13T03:55:24;10.70;;;9.18;;
16189;SDS011;41754;51.498;7.540;2023-10-13T03:57:55;10.80;;;9.70;;
16189;SDS011;41754;51.498;7.540;2023-10-13T04:00:26;9.73;;;8.55;;
16189;SDS011;41754;51.498;7.540;2023-10-13T04:02:55;12.50;;;8.68;;
16189;SDS011;41754;51.498;7.540;2023-10-13T04:05:36;9.73;;;8.70;;
16189;SDS011;41754;51.498;7.540;2023-10-13T04:08:11;11.50;;;8.70;;
16189;SDS011;41754;51.498;7.540;2023-10-13T04:10:58;9.77;;;8.77;;
16189;SDS011;41754;51.498;7.540;2023-10-13T04:13:44;12.63;;;8.23;;
16189;SDS011;41754;51.498;7.540;2023-10-13T04:16:29;9.77;;;8.43;;
16189;SDS011;41754;51.498;7.540;2023-10-13T04:19:18;10.27;;;8.30;;
16189;SDS011;41754;51.498;7.540;2023-10-13T04:21:55;9.27;;;7.82;;
16189;SDS011;41754;51.498;7.540;2023-10-13T04:24:26;9.38;;;7.97;;
16189;SDS011;41754;51.498;7.540;2023-10-13T04:27:09;9.63;;;8.10;;
16189;SDS011;41754;51.498;7.540;2023-10-13T04:29:57;10.43;;;7.60;;
16189;SDS011;41754;51.498;7.540;2023-10-13T04:32:37;9.77;;;8.68;;
16189;SDS011;41754;51.498;7.540;2023-10-13T04:35:15;12.02;;;8.52;;
16189;SDS011;41754;51.498;7.540;2023-10-13T04:37:45;11.73;;;8.02;;
16189;SDS011;41754;51.498;7.540;2023-10-13T04:40:20;10.57;;;8.15;;
16189;SDS011;41754;51.498;7.540;2023-10-13T04:42:51;10.93;;;7.63;;
16189;SDS011;41754;51.498;7.540;2023-10-13T04:45:24;11.35;;;8.05;;
16189;SDS011;41754;51.498;7.540;2023-10-13T04:48:05;10.50;;;7.93;;
16189;SDS011;41754;51.498;7.540;2023-10-13T04:51:00;9.30;;;7.25;;
16189;SDS011;41754;51.498;7.540;2023-10-13T04:54:10;10.93;;;7.75;;
16189;SDS011;41754;51.498;7.540;2023-10-13T04:56:39;16.33;;;8.88;;
16189;SDS011;41754;51.498;7.540;2023-10-13T04:59:47;12.95;;;8.43;;
16189;SDS011;41754;51.498;7.540;2023-10-13T05:02:33;14.13;;;8.07;;
16189;SDS011;41754;51.498;7.540;2023-10-13T05:05:19;11.32;;;8.25;;
16189;SDS011;41754;51.498;7.540;2023-10-13T05:08:11;10.50;;;8.30;;
16189;SDS011;41754;51.498;7.540;2023-10-13T05:10:57;10.15;;;8.13;;
16189;SDS011;41754;51.498;7.540;2023-10-13T05:13:42;9.73;;;7.82;;
16189;SDS011;41754;51.498;7.540;2023-10-13T05:16:28;11.98;;;7.82;;
16189;SDS011;41754;51.498;7.540;2023-10-13T05:19:14;12.00;;;8.40;;
16189;SDS011;41754;51.498;7.540;2023-10-13T05:21:59;14.60;;;8.35;;
16189;SDS011;41754;51.498;7.540;2023-10-13T05:24:48;11.77;;;8.55;;
16189;SDS011;41754;51.498;7.540;2023-10-13T05:27:33;14.30;;;8.40;;
16189;SDS011;41754;51.498;7.540;2023-10-13T05:30:29;12.88;;;8.50;;
16189;SDS011;41754;51.498;7.540;2023-10-13T05:33:15;13.48;;;8.57;;
16189;SDS011;41754;51.498;7.540;2023-10-13T05:36:00;12.50;;;8.50;;
16189;SDS011;41754;51.498;7.540;2023-10-13T05:38:46;12.18;;;8.27;;
16189;SDS011;41754;51.498;7.540;2023-10-13T05:41:33;12.32;;;8.43;;
16189;SDS011;41754;51.498;7.540;2023-10-13T05:44:23;10.50;;;8.05;;
16189;SDS011;41754;51.498;7.540;2023-10-13T05:47:04;11.27;;;8.45;;
16189;SDS011;41754;51.498;7.540;2023-10-13T05:49:49;12.60;;;8.95;;
16189;SDS011;41754;51.498;7.540;2023-10-13T05:52:19;11.68;;;8.93;;
16189;SDS011;41754;51.498;7.540;2023-10-13T05:55:07;13.13;;;8.50;;
16189;SDS011;41754;51.498;7.540;2023-10-13T05:57:55;12.45;;;8.52;;
16189;SDS011;41754;51.498;7.540;2023-10-13T06:00:41;11.93;;;8.45;;
16189;SDS011;41754;51.498;7.540;2023-10-13T06:03:26;10.93;;;7.75;;
16189;SDS011;41754;51.498;7.540;2023-10-13T06:06:11;11.25;;;8.45;;
16189;SDS011;41754;51.498;7.540;2023-10-13T06:08:57;12.57;;;8.25;;
16189;SDS011;41754;51.498;7.540;2023-10-13T06:11:42;12.80;;;7.93;;
16189;SDS011;41754;51.498;7.540;2023-10-13T06:14:29;10.90;;;7.60;;
16189;SDS011;41754;51.498;7.540;2023-10-13T06:17:14;11.88;;;7.47;;
16189;SDS011;41754;51.498;7.540;2023-10-13T06:20:00;10.35;;;6.07;;
16189;SDS011;41754;51.498;7.540;2023-10-13T06:22:47;10.75;;;7.22;;
16189;SDS011;41754;51.498;7.540;2023-10-13T06:25:32;8.63;;;6.10;;
16189;SDS011;41754;51.498;7.540;2023-10-13T06:28:18;6.47;;;5.47;;
16189;SDS011;41754;51.498;7.540;2023-10-13T06:31:05;8.63;;;5.82;;
16189;SDS011;41754;51.498;7.540;2023-10-13T06:33:33;9.15;;;6.22;;
16189;SDS011;41754;51.498;7.540;2023-10-13T06:36:02;6.55;;;5.60;;
16189;SDS011;41754;51.498;7.540;2023-10-13T06:38:35;10.25;;;5.97;;
16189;SDS011;41754;51.498;7.540;2023-10-13T06:41:03;6.85;;;4.90;;
16189;SDS011;41754;51.498;7.540;2023-10-13T06:43:32;7.38;;;5.38;;
16189;SDS011;41754;51.498;7.540;2023-10-13T06:46:07;8.13;;;5.20;;
16189;SDS011;41754;51.498;7.540;2023-10-13T06:48:41;10.23;;;5.28;;
16189;SDS011;41754;51.498;7.540;2023-10-13T06:51:10;8.98;;;5.35;;
16189;SDS011;41754;51.498;7.540;2023-10-13T06:53:44;7.18;;;5.35;;
16189;SDS011;41754;51.498;7.540;2023-10-13T06:56:14;7.15;;;4.75;;
16189;SDS011;41754;51.498;7.540;2023-10-13T06:58:44;5.47;;;4.38;;
16189;SDS011;41754;51.498;7.540;2023-10-13T07:01:14;6.15;;;4.70;;
16189;SDS011;41754;51.498;7.540;2023-10-13T07:03:42;8.15;;;5.25;;
16189;SDS011;41754;51.498;7.540;2023-10-13T07:06:15;6.90;;;4.97;;
16189;SDS011;41754;51.498;7.540;2023-10-13T07:08:46;7.03;;;4.70;;
16189;SDS011;41754;51.498;7.540;2023-10-13T07:11:18;6.88;;;4.82;;
16189;SDS011;41754;51.498;7.540;2023-10-13T07:13:49;6.75;;;4.70;;
16189;SDS011;41754;51.498;7.540;2023-10-13T07:16:21;5.13;;;4.28;;
16189;SDS011;41754;51.498;7.540;2023-10-13T07:18:52;6.13;;;4.25;;
16189;SDS011;41754;51.498;7.540;2023-10-13T07:21:21;8.25;;;4.88;;
16189;SDS011;41754;51.498;7.540;2023-10-13T07:23:57;7.95;;;5.15;;
16189;SDS011;41754;51.498;7.540;2023-10-13T07:26:35;5.97;;;5.13;;
16189;SDS011;41754;51.498;7.540;2023-10-13T07:29:09;10.07;;;5.85;;
16189;SDS011;41754;51.498;7.540;2023-10-13T07:31:39;10.15;;;5.85;;
16189;SDS011;41754;51.498;7.540;2023-10-13T07:34:08;7.72;;;5.45;;
16189;SDS011;41754;51.498;7.540;2023-10-13T07:36:43;9.43;;;6.05;;
16189;SDS011;41754;51.498;7.540;2023-10-13T07:39:12;8.70;;;5.97;;
16189;SDS011;41754;51.498;7.540;2023-10-13T07:41:57;11.00;;;6.03;;
16189;SDS011;41754;51.498;7.540;2023-10-13T07:44:30;6.72;;;5.78;;
16189;SDS011;41754;51.498;7.540;2023-10-13T07:47:01;9.63;;;6.05;;
16189;SDS011;41754;51.498;7.540;2023-10-13T07:49:31;11.02;;;6.10;;
16189;SDS011;41754;51.498;7.540;2023-10-13T07:52:05;10.38;;;6.43;;
16189;SDS011;41754;51.498;7.540;2023-10-13T07:54:46;10.48;;;6.53;;
16189;SDS011;41754;51.498;7.540;2023-10-13T07:57:22;10.75;;;6.20;;
16189;SDS011;41754;51.498;7.540;2023-10-13T07:59:55;8.88;;;6.00;;
16189;SDS011;41754;51.498;7.540;2023-10-13T08:02:40;8.80;;;5.57;;
16189;SDS011;41754;51.498;7.540;2023-10-13T08:05:18;12.27;;;6.63;;
16189;SDS011;41754;51.498;7.540;2023-10-13T08:08:05;12.77;;;5.80;;
16189;SDS011;41754;51.498;7.540;2023-10-13T08:10:40;10.52;;;5.78;;
16189;SDS011;41754;51.498;7.540;2023-10-13T08:13:11;12.95;;;5.97;;
16189;SDS011;41754;51.498;7.540;2023-10-13T08:15:40;12.93;;;6.22;;
16189;SDS011;41754;51.498;7.540;2023-10-13T08:18:15;12.57;;;6.13;;
16189;SDS011;41754;51.498;7.540;2023-10-13T08:20:57;14.55;;;5.57;;
16189;SDS011;41754;51.498;7.540;2023-10-13T08:23:30;10.10;;;5.40;;
16189;SDS011;41754;51.498;7.540;2023-10-13T08:26:16;13.63;;;6.57;;
16189;SDS011;41754;51.498;7.540;2023-10-13T08:28:57;11.70;;;5.80;;
16189;SDS011;41754;51.498;7.540;2023-10-13T08:31:46;12.20;;;5.93;;
16189;SDS011;41754;51.498;7.540;2023-10-13T08:34:32;14.88;;;5.28;;
16189;SDS011;41754;51.498;7.540;2023-10-13T08:37:06;12.07;;;5.22;;
16189;SDS011;41754;51.498;7.540;2023-10-13T08:39:45;11.00;;;5.93;;
16189;SDS011;41754;51.498;7.540;2023-10-13T08:42:53;13.27;;;5.28;;
16189;SDS011;41754;51.498;7.540;2023-10-13T08:45:36;8.90;;;4.53;;
16189;SDS011;41754;51.498;7.540;2023-10-13T08:48:18;10.93;;;5.57;;
16189;SDS011;41754;51.498;7.540;2023-10-13T08:50:54;11.48;;;4.97;;
16189;SDS011;41754;51.498;7.540;2023-10-13T08:53:22;9.48;;;5.15;;
16189;SDS011;41754;51.498;7.540;2023-10-13T08:55:54;10.95;;;5.22;;
16189;SDS011;41754;51.498;7.540;2023-10-13T08:58:34;10.02;;;4.50;;
16189;SDS011;41754;51.498;7.540;2023-10-13T09:01:22;13.20;;;4.32;;
16189;SDS011;41754;51.498;7.540;2023-10-13T09:04:12;11.82;;;4.75;;
16189;SDS011;41754;51.498;7.540;2023-10-13T09:06:51;13.93;;;5.20;;
16189;SDS011;41754;51.498;7.540;2023-10-13T09:09:44;15.63;;;5.10;;
16189;SDS011;41754;51.498;7.540;2023-10-13T09:12:37;12.80;;;4.35;;
16189;SDS011;41754;51.498;7.540;2023-10-13T09:15:07;7.13;;;4.35;;
16189;SDS011;41754;51.498;7.540;2023-10-13T09:17:50;8.85;;;4.90;;
16189;SDS011;41754;51.498;7.540;2023-10-13T09:20:27;11.20;;;4.93;;
16189;SDS011;41754;51.498;7.540;2023-10-13T09:23:11;10.23;;;5.20;;
16189;SDS011;41754;51.498;7.540;2023-10-13T09:25:40;8.07;;;4.88;;
16189;SDS011;41754;51.498;7.540;2023-10-13T09:28:27;10.38;;;4.97;;
16189;SDS011;41754;51.498;7.540;2023-10-13T09:30:56;8.52;;;4.60;;
16189;SDS011;41754;51.498;7.540;2023-10-13T09:33:26;13.02;;;5.28;;
16189;SDS011;41754;51.498;7.540;2023-10-13T09:35:59;11.40;;;4.93;;
16189;SDS011;41754;51.498;7.540;2023-10-13T09:38:33;9.55;;;4.43;;
16189;SDS011;41754;51.498;7.540;2023-10-13T09:41:03;15.38;;;5.32;;
16189;SDS011;41754;51.498;7.540;2023-10-13T09:43:44;12.20;;;4.35;;
16189;SDS011;41754;51.498;7.540;2023-10-13T09:46:13;11.80;;;4.82;;
16189;SDS011;41754;51.498;7.540;2023-10-13T09:48:50;13.65;;;4.45;;
16189;SDS011;41754;51.498;7.540;2023-10-13T09:51:34;10.23;;;4.72;;
16189;SDS011;41754;51.498;7.540;2023-10-13T09:54:03;9.70;;;4.18;;
16189;SDS011;41754;51.498;7.540;2023-10-13T09:57:00;9.68;;;4.88;;
16189;SDS011;41754;51.498;7.540;2023-10-13T09:59:36;12.10;;;4.72;;
16189;SDS011;41754;51.498;7.540;2023-10-13T10:02:18;11.57;;;4.63;;
16189;SDS011;41754;51.498;7.540;2023-10-13T10:04:51;10.35;;;4.60;;
16189;SDS011;41754;51.498;7.540;2023-10-13T10:07:23;12.10;;;4.78;;
16189;SDS011;41754;51.498;7.540;2023-10-13T10:09:56;11.55;;;4.63;;
16189;SDS011;41754;51.498;7.540;2023-10-13T10:12:28;13.80;;;4.93;;
16189;SDS011;41754;51.498;7.540;2023-10-13T10:15:09;11.40;;;4.80;;
16189;SDS011;41754;51.498;7.540;2023-10-13T10:17:57;12.70;;;4.72;;
16189;SDS011;41754;51.498;7.540;2023-10-13T10:20:28;7.95;;;4.75;;
16189;SDS011;41754;51.498;7.540;2023-10-13T10:23:09;12.00;;;4.85;;
16189;SDS011;41754;51.498;7.540;2023-10-13T10:25:45;17.00;;;5.10;;
16189;SDS011;41754;51.498;7.540;2023-10-13T10:28:13;12.07;;;4.95;;
16189;SDS011;41754;51.498;7.540;2023-10-13T10:30:42;12.35;;;5.03;;
16189;SDS011;41754;51.498;7.540;2023-10-13T10:33:11;9.82;;;4.97;;
16189;SDS011;41754;51.498;7.540;2023-10-13T10:35:40;10.70;;;5.32;;
16189;SDS011;41754;51.498;7.540;2023-10-13T10:38:09;11.77;;;5.63;;
16189;SDS011;41754;51.498;7.540;2023-10-13T10:40:52;13.27;;;5.93;;
16189;SDS011;41754;51.498;7.540;2023-10-13T10:43:25;12.73;;;5.40;;
16189;SDS011;41754;51.498;7.540;2023-10-13T10:45:59;11.63;;;5.63;;
16189;SDS011;41754;51.498;7.540;2023-10-13T10:48:27;11.52;;;5.47;;
16189;SDS011;41754;51.498;7.540;2023-10-13T10:51:04;11.27;;;4.60;;
16189;SDS011;41754;51.498;7.540;2023-10-13T10:53:41;8.93;;;5.43;;
16189;SDS011;41754;51.498;7.540;2023-10-13T10:56:15;13.40;;;5.38;;
16189;SDS011;41754;51.498;7.540;2023-10-13T10:58:47;11.95;;;5.32;;
16189;SDS011;41754;51.498;7.540;2023-10-13T11:01:15;11.40;;;5.38;;
16189;SDS011;41754;51.498;7.540;2023-10-13T11:03:54;13.43;;;6.28;;
16189;SDS011;41754;51.498;7.540;2023-10-13T11:06:25;11.35;;;5.75;;
16189;SDS011;41754;51.498;7.540;2023-10-13T11:09:01;11.55;;;5.75;;
16189;SDS011;41754;51.498;7.540;2023-10-13T11:11:37;14.02;;;5.85;;
16189;SDS011;41754;51.498;7.540;2023-10-13T11:14:09;9.15;;;5.95;;
16189;SDS011;41754;51.498;7.540;2023-10-13T11:16:50;13.75;;;6.18;;
16189;SDS011;41754;51.498;7.540;2023-10-13T11:19:20;12.32;;;6.53;;
16189;SDS011;41754;51.498;7.540;2023-10-13T11:21:54;11.13;;;5.82;;
16189;SDS011;41754;51.498;7.540;2023-10-13T11:24:22;10.10;;;6.00;;
16189;SDS011;41754;51.498;7.540;2023-10-13T11:26:51;9.43;;;6.00;;
16189;SDS011;41754;51.498;7.540;2023-10-13T11:29:30;11.73;;;6.00;;
16189;SDS011;41754;51.498;7.540;2023-10-13T11:32:01;13.10;;;6.28;;
16189;SDS011;41754;51.498;7.540;2023-10-13T11:34:29;11.52;;;6.28;;
16189;SDS011;41754;51.498;7.540;2023-10-13T11:37:06;13.30;;;6.78;;
16189;SDS011;41754;51.498;7.540;2023-10-13T11:39:48;16.05;;;6.35;;
16189;SDS011;41754;51.498;7.540;2023-10-13T11:42:19;14.40;;;6.32;;
16189;SDS011;41754;51.498;7.540;2023-10-13T11:44:47;12.07;;;6.07;;
16189;SDS011;41754;51.498;7.540;2023-10-13T11:47:34;10.77;;;5.55;;
16189;SDS011;41754;51.498;7.540;2023-10-13T11:50:14;11.70;;;6.40;;
16189;SDS011;41754;51.498;7.540;2023-10-13T11:52:54;10.57;;;5.70;;
16189;SDS011;41754;51.498;7.540;2023-10-13T11:55:22;14.60;;;6.57;;
16189;SDS011;41754;51.498;7.540;2023-10-13T11:57:52;13.27;;;6.28;;
16189;SDS011;41754;51.498;7.540;2023-10-13T12:00:20;11.43;;;5.47;;
16189;SDS011;41754;51.498;7.540;2023-10-13T12:03:13;11.18;;;5.72;;
16189;SDS011;41754;51.498;7.540;2023-10-13T12:05:58;10.30;;;6.07;;
16189;SDS011;41754;51.498;7.540;2023-10-13T12:08:45;13.55;;;6.63;;
16189;SDS011;41754;51.498;7.540;2023-10-13T12:11:18;10.60;;;5.70;;
16189;SDS011;41754;51.498;7.540;2023-10-13T12:14:02;10.48;;;6.10;;
16189;SDS011;41754;51.498;7.540;2023-10-13T12:16:38;13.50;;;6.57;;
16189;SDS011;41754;51.498;7.540;2023-10-13T12:19:06;12.35;;;6.35;;
16189;SDS011;41754;51.498;7.540;2023-10-13T12:21:37;12.77;;;5.97;;
16189;SDS011;41754;51.498;7.540;2023-10-13T12:24:05;10.63;;;6.20;;
16189;SDS011;41754;51.498;7.540;2023-10-13T12:26:38;12.73;;;6.65;;
16189;SDS011;41754;51.498;7.540;2023-10-13T12:29:10;10.20;;;6.25;;
16189;SDS011;41754;51.498;7.540;2023-10-13T12:31:49;10.95;;;6.03;;
16189;SDS011;41754;51.498;7.540;2023-10-13T12:34:28;10.00;;;6.18;;
16189;SDS011;41754;51.498;7.540;2023-10-13T12:37:18;11.35;;;6.53;;
16189;SDS011;41754;51.498;7.540;2023-10-13T12:40:05;10.80;;;5.68;;
16189;SDS011;41754;51.498;7.540;2023-10-13T12:42:53;10.75;;;5.97;;
16189;SDS011;41754;51.498;7.540;2023-10-13T12:45:40;10.15;;;6.45;;
16189;SDS011;41754;51.498;7.540;2023-10-13T12:48:25;11.35;;;6.28;;
16189;SDS011;41754;51.498;7.540;2023-10-13T12:51:11;12.80;;;6.20;;
16189;SDS011;41754;51.498;7.540;2023-10-13T12:53:47;14.82;;;6.20;;
16189;SDS011;41754;51.498;7.540;2023-10-13T12:56:15;11.95;;;6.30;;
16189;SDS011;41754;51.498;7.540;2023-10-13T12:58:44;9.75;;;6.53;;
16189;SDS011;41754;51.498;7.540;2023-10-13T13:01:20;12.65;;;6.53;;
16189;SDS011;41754;51.498;7.540;2023-10-13T13:03:49;9.20;;;5.38;;
16189;SDS011;41754;51.498;7.540;2023-10-13T13:06:22;9.52;;;5.25;;
16189;SDS011;41754;51.498;7.540;2023-10-13T13:08:52;9.82;;;6.10;;
16189;SDS011;41754;51.498;7.540;2023-10-13T13:11:20;13.02;;;6.05;;
16189;SDS011;41754;51.498;7.540;2023-10-13T13:13:51;12.40;;;6.03;;
16189;SDS011;41754;51.498;7.540;2023-10-13T13:16:20;10.70;;;5.88;;
16189;SDS011;41754;51.498;7.540;2023-10-13T13:18:51;11.13;;;5.85;;
16189;SDS011;41754;51.498;7.540;2023-10-13T13:21:21;11.57;;;6.10;;
16189;SDS011;41754;51.498;7.540;2023-10-13T13:23:50;18.73;;;6.65;;
16189;SDS011;41754;51.498;7.540;2023-10-13T13:26:21;10.70;;;5.32;;
16189;SDS011;41754;51.498;7.540;2023-10-13T13:28:49;13.38;;;5.53;;
16189;SDS011;41754;51.498;7.540;2023-10-13T13:31:18;9.10;;;5.45;;
16189;SDS011;41754;51.498;7.540;2023-10-13T13:33:53;16.92;;;5.85;;
16189;SDS011;41754;51.498;7.540;2023-10-13T13:36:21;15.60;;;5.88;;
16189;SDS011;41754;51.498;7.540;2023-10-13T13:38:49;14.50;;;6.47;;
16189;SDS011;41754;51.498;7.540;2023-10-13T13:41:17;11.35;;;5.50;;
16189;SDS011;41754;51.498;7.540;2023-10-13T13:43:45;14.15;;;5.60;;
16189;SDS011;41754;51.498;7.540;2023-10-13T13:46:23;10.35;;;5.75;;
16189;SDS011;41754;51.498;7.540;2023-10-13T13:48:55;14.80;;;6.20;;
16189;SDS011;41754;51.498;7.540;2023-10-13T13:51:26;14.50;;;5.80;;
16189;SDS011;41754;51.498;7.540;2023-10-13T13:53:55;11.90;;;6.03;;
16189;SDS011;41754;51.498;7.540;2023-10-13T13:56:24;11.25;;;5.38;;
16189;SDS011;41754;51.498;7.540;2023-10-13T13:58:54;9.00;;;5.32;;
16189;SDS011;41754;51.498;7.540;2023-10-13T14:01:22;11.75;;;5.65;;
16189;SDS011;41754;51.498;7.540;2023-10-13T14:03:52;12.73;;;5.68;;
16189;SDS011;41754;51.498;7.540;2023-10-13T14:06:25;13.20;;;5.68;;
16189;SDS011;41754;51.498;7.540;2023-10-13T14:08:53;11.57;;;5.55;;
16189;SDS011;41754;51.498;7.540;2023-10-13T14:11:23;13.85;;;5.68;;
16189;SDS011;41754;51.498;7.540;2023-10-13T14:14:10;20.27;;;5.88;;
16189;SDS011;41754;51.498;7.540;2023-10-13T14:16:39;13.10;;;5.32;;
16189;SDS011;41754;51.498;7.540;2023-10-13T14:19:11;12.93;;;5.55;;
16189;SDS011;41754;51.498;7.540;2023-10-13T14:21:40;12.15;;;5.60;;
16189;SDS011;41754;51.498;7.540;2023-10-13T14:24:09;10.13;;;5.45;;
16189;SDS011;41754;51.498;7.540;2023-10-13T14:26:43;12.88;;;5.30;;
16189;SDS011;41754;51.498;7.540;2023-10-13T14:29:11;12.52;;;5.47;;
16189;SDS011;41754;51.498;7.540;2023-10-13T14:31:42;11.85;;;5.38;;
16189;SDS011;41754;51.498;7.540;2023-10-13T14:34:10;8.80;;;4.70;;
16189;SDS011;41754;51.498;7.540;2023-10-13T14:36:40;16.95;;;6.25;;
16189;SDS011;41754;51.498;7.540;2023-10-13T14:39:14;11.52;;;5.90;;
16189;SDS011;41754;51.498;7.540;2023-10-13T14:41:42;12.75;;;5.30;;
16189;SDS011;41754;51.498;7.540;2023-10-13T14:44:13;13.77;;;5.10;;
16189;SDS011;41754;51.498;7.540;2023-10-13T14:46:40;9.27;;;4.88;;
16189;SDS011;41754;51.498;7.540;2023-10-13T14:49:09;13.10;;;5.78;;
16189;SDS011;41754;51.498;7.540;2023-10-13T14:51:37;12.30;;;5.50;;
16189;SDS011;41754;51.498;7.540;2023-10-13T14:54:08;16.25;;;5.78;;
16189;SDS011;41754;51.498;7.540;2023-10-13T14:56:35;20.52;;;6.07;;
16189;SDS011;41754;51.498;7.540;2023-10-13T14:59:03;15.77;;;5.68;;
16189;SDS011;41754;51.498;7.540;2023-10-13T15:01:32;11.30;;;5.15;;
16189;SDS011;41754;51.498;7.540;2023-10-13T15:04:02;10.45;;;5.13;;
16189;SDS011;41754;51.498;7.540;2023-10-13T15:06:31;15.60;;;6.18;;
16189;SDS011;41754;51.498;7.540;2023-10-13T15:08:59;13.75;;;5.18;;
16189;SDS011;41754;51.498;7.540;2023-10-13T15:11:29;13.02;;;5.57;;
16189;SDS011;41754;51.498;7.540;2023-10-13T15:14:14;12.27;;;4.82;;
16189;SDS011;41754;51.498;7.540;2023-10-13T15:16:42;13.30;;;5.00;;
16189;SDS011;41754;51.498;7.540;2023-10-13T15:19:10;10.98;;;5.22;;
16189;SDS011;41754;51.498;7.540;2023-10-13T15:21:39;15.18;;;5.28;;
16189;SDS011;41754;51.498;7.540;2023-10-13T15:24:07;11.07;;;5.50;;